Date,TemperatureHighF,TemperatureAvgF,TemperatureLowF,DewpointHighF,DewpointAvgF,DewpointLowF,HumidityHigh,HumidityAvg,HumidityLow,PressureMaxIn,PressureMinIn,WindSpeedMaxMPH,WindSpeedAvgMPH,GustSpeedMaxMPH,PrecipitationSumIn
2013-11-6,60.0,54.5,45.0,57.0,45.9,38.0,96,74,59,0.00,40.00,24,14,32,1.10
2013-11-7,46.0,41.7,39.0,43.0,31.5,27.0,93,68,49,0.00,40.00,17,10,27,0.00
2013-11-8,44.0,37.7,34.0,33.0,29.8,26.0,89,74,51,0.00,40.00,10,6,18,0.00
2013-11-9,58.0,46.7,36.0,40.0,31.0,-99.9,80,59,46,0.00,40.00,25,15,35,0.00
2013-11-10,48.0,41.7,33.0,39.0,31.5,28.0,84,67,55,0.00,40.00,16,9,25,0.00
2013-11-11,51.0,41.1,29.0,39.0,32.6,28.0,98,73,49,0.00,40.00,18,11,25,0.55
2013-11-12,32.0,27.5,23.0,26.0,20.6,17.0,95,75,63,0.00,40.00,13,7,19,0.00
2013-11-13,36.0,27.5,21.0,22.0,19.3,17.0,87,72,49,0.00,40.00,15,7,22,0.00
2013-11-14,50.0,40.2,31.0,25.0,21.7,19.0,68,48,30,0.00,40.00,22,14,30,0.00
2013-11-15,49.0,44.8,37.0,33.0,28.6,24.0,74,53,42,0.00,40.00,14,10,20,0.00
2013-11-16,59.0,48.4,39.0,52.0,41.9,-99.9,92,83,77,0.00,40.00,24,10,35,0.00
2013-11-17,62.0,58.4,49.0,59.0,53.7,39.0,98,85,61,0.00,40.00,32,22,49,1.10
2013-11-18,48.0,44.1,41.0,40.0,36.7,34.0,82,75,69,0.00,40.00,21,16,32,0.00
2013-11-21,47.0,43.2,39.0,45.0,37.6,29.0,97,81,62,0.00,40.00,11,5,18,6.68
2013-11-22,49.0,43.6,33.0,49.0,40.8,27.0,99,90,71,0.00,40.00,17,8,24,1.65
2013-11-23,33.0,26.8,19.0,27.0,17.1,-99.9,93,72,50,0.00,40.00,21,10,28,1.10
2013-11-24,24.0,19.1,15.0,15.0,10.0,3.0,83,68,44,0.00,40.00,13,8,20,0.00
2013-11-25,34.0,26.6,18.0,23.0,14.2,12.0,79,61,43,0.00,40.00,20,12,29,0.00
2013-11-26,34.0,32.0,30.0,28.0,26.2,24.0,87,79,68,0.00,40.00,12,6,21,0.00
2013-11-27,31.0,26.4,22.0,28.0,15.7,10.0,85,64,45,0.00,40.00,18,10,27,0.00